Great Falls/Malmstrom AFB, Montana
Current Conditions -  °F | °C
As of 7:53 PM on Sunday 23 Nov 2014 (Local Time) from KGTF Reporting Station
Broken Clouds Broken Clouds  
Wind Chill: 28°   Ceiling: 11000
Heat Index: 36°   Visibility: 10mi
Dew Point: 22°   Wind: 10mph
Humidity: 57%   Direction: 230°SW
Pressure: 29.78"   Gusts: NA
Location:  47.47°N, 111.32°W
Report Text: KGTF 240253Z 23009KT 10SM BKN110 02/M06 A2978 RMK AO2 SLP118 T00221056 56015
Loading
Personal Weather Stations






























Interactive Weather Map New forecast layout! Learn more

10-Day Weather Forecast

Advertisements
Track Severe Weather on mobile